createdAt,value
2024-03-23T00:05:23.527Z,9.49
2024-03-23T00:10:51.811Z,9.46
2024-03-23T00:16:01.731Z,9.44
2024-03-23T00:21:13.998Z,9.44
2024-03-23T00:26:59.311Z,9.44
2024-03-23T00:32:04.123Z,9.43
2024-03-23T00:37:37.176Z,9.42
2024-03-23T00:43:02.760Z,9.42
2024-03-23T00:48:47.032Z,9.37
2024-03-23T00:54:39.182Z,9.36
2024-03-23T00:59:51.079Z,9.34
2024-03-23T01:05:14.740Z,9.32
2024-03-23T01:10:33.376Z,9.30
2024-03-23T01:15:42.675Z,9.26
2024-03-23T01:20:57.822Z,9.23
2024-03-23T01:26:49.753Z,9.23
2024-03-23T01:32:48.956Z,9.20
2024-03-23T01:39:03.066Z,9.16
2024-03-23T01:45:27.201Z,9.05
2024-03-23T01:51:41.406Z,8.98
2024-03-23T01:58:10.484Z,8.92
2024-03-23T02:04:34.237Z,8.86
2024-03-23T02:10:58.951Z,8.82
2024-03-23T02:17:06.706Z,8.85
2024-03-23T02:23:21.782Z,8.88
2024-03-23T02:29:28.511Z,8.91
2024-03-23T02:35:52.331Z,8.92
2024-03-23T02:41:56.921Z,8.91
2024-03-23T02:47:59.721Z,8.91
2024-03-23T02:53:54.249Z,8.89
2024-03-23T03:00:18.833Z,8.86
2024-03-23T03:06:43.622Z,8.91
2024-03-23T03:13:15.594Z,8.92
2024-03-23T03:19:29.519Z,8.94
2024-03-23T03:25:55.059Z,8.95
2024-03-23T03:32:00.908Z,8.92
2024-03-23T03:38:23.534Z,8.90
2024-03-23T03:44:48.514Z,8.90
2024-03-23T03:51:13.570Z,8.91
2024-03-23T03:57:21.135Z,8.88
2024-03-23T04:03:45.581Z,8.83
2024-03-23T04:10:02.068Z,8.80
2024-03-23T04:16:10.817Z,8.82
2024-03-23T04:22:35.007Z,8.79
2024-03-23T04:28:59.244Z,8.72
2024-03-23T04:35:05.738Z,8.66
2024-03-23T04:41:33.107Z,8.61
2024-03-23T04:47:37.901Z,8.58
2024-03-23T04:53:53.677Z,8.53
2024-03-23T04:59:47.995Z,8.44
2024-03-23T05:06:12.055Z,8.35
2024-03-23T05:12:37.566Z,8.33
2024-03-23T05:18:56.859Z,8.36
2024-03-23T05:25:04.831Z,8.39
2024-03-23T05:31:15.751Z,8.43
2024-03-23T05:37:35.533Z,8.40
2024-03-23T05:44:01.864Z,8.37
2024-03-23T05:50:29.252Z,8.43
2024-03-23T05:56:57.830Z,8.54
2024-03-23T06:03:15.769Z,8.76
2024-03-23T06:09:16.247Z,8.98
2024-03-23T06:15:23.629Z,9.14
2024-03-23T06:21:49.444Z,9.36
2024-03-23T06:28:07.421Z,9.65
2024-03-23T06:34:23.261Z,9.69
2024-03-23T06:40:48.007Z,9.67
2024-03-23T06:46:53.329Z,9.64
2024-03-23T06:52:54.391Z,9.65
2024-03-23T06:59:10.105Z,9.74
2024-03-23T07:05:03.604Z,9.98
2024-03-23T07:11:29.262Z,10.56
2024-03-23T07:17:56.166Z,10.88
2024-03-23T07:24:03.075Z,11.09
2024-03-23T07:30:19.499Z,11.40
2024-03-23T07:36:13.440Z,11.73
2024-03-23T07:41:20.863Z,11.95
2024-03-23T07:46:44.338Z,12.22
2024-03-23T07:52:39.802Z,12.53
2024-03-23T07:58:54.394Z,13.00
2024-03-23T08:04:46.000Z,13.43
2024-03-23T08:11:10.288Z,13.71
2024-03-23T08:17:26.613Z,13.85
2024-03-23T08:23:51.552Z,13.97
2024-03-23T08:37:06.669Z,14.19
2024-03-23T08:43:15.566Z,14.85
2024-03-23T08:49:23.966Z,15.07
2024-03-23T08:55:19.037Z,15.03
2024-03-23T09:00:46.839Z,14.90
2024-03-23T09:06:56.292Z,14.77
2024-03-23T09:13:10.926Z,14.89
2024-03-23T09:19:20.065Z,14.86
2024-03-23T09:25:21.252Z,14.51
2024-03-23T09:31:20.912Z,14.25
2024-03-23T09:36:49.012Z,14.04
2024-03-23T09:42:54.921Z,14.03
2024-03-23T09:48:51.133Z,13.93
2024-03-23T09:54:57.256Z,13.94
2024-03-23T10:00:47.022Z,14.03
2024-03-23T10:06:23.202Z,14.08
2024-03-23T10:11:50.812Z,14.44
2024-03-23T10:17:36.018Z,14.87
2024-03-23T10:23:41.105Z,15.19
2024-03-23T10:29:35.296Z,16.06
2024-03-23T10:35:42.737Z,16.34
2024-03-23T10:42:01.281Z,16.79
2024-03-23T10:47:47.701Z,17.27
2024-03-23T10:53:02.116Z,17.48
2024-03-23T10:58:36.877Z,17.45
2024-03-23T11:03:48.662Z,17.32
2024-03-23T11:09:46.039Z,17.42
2024-03-23T11:16:02.958Z,17.57
2024-03-23T11:22:35.099Z,17.89
2024-03-23T11:28:50.509Z,18.09
2024-03-23T11:34:24.132Z,18.04
2024-03-23T11:40:41.346Z,18.44
2024-03-23T11:46:11.183Z,19.08
2024-03-23T11:51:31.352Z,19.26
2024-03-23T11:56:50.633Z,18.74
2024-03-23T12:02:22.908Z,18.27
2024-03-23T12:08:37.911Z,17.76
2024-03-23T12:14:32.912Z,17.18
2024-03-23T12:20:37.802Z,16.76
2024-03-23T12:26:47.686Z,16.55
2024-03-23T12:32:06.185Z,16.57
2024-03-23T12:37:58.853Z,16.54
2024-03-23T12:43:46.179Z,16.44
2024-03-23T12:49:46.595Z,16.24
2024-03-23T12:55:51.893Z,16.04
2024-03-23T13:01:49.014Z,15.69
2024-03-23T13:07:45.005Z,15.51
2024-03-23T13:13:34.394Z,14.94
2024-03-23T13:19:18.353Z,14.22
2024-03-23T13:25:22.793Z,13.58
2024-03-23T13:31:31.329Z,12.95
2024-03-23T13:37:48.055Z,12.31
2024-03-23T13:43:52.455Z,12.04
2024-03-23T13:50:28.737Z,11.98
2024-03-23T13:56:21.127Z,12.20
2024-03-23T14:01:37.203Z,11.86
2024-03-23T14:07:06.045Z,11.52
2024-03-23T14:13:03.647Z,11.12
2024-03-23T14:19:07.875Z,10.24
2024-03-23T14:25:32.611Z,9.48
2024-03-23T14:31:57.446Z,8.52
2024-03-23T14:37:55.289Z,8.00
2024-03-23T14:44:02.820Z,7.62
2024-03-23T14:50:11.720Z,7.33
2024-03-23T14:56:16.777Z,7.18
2024-03-23T15:02:14.009Z,7.31
2024-03-23T15:08:23.164Z,7.28
2024-03-23T15:14:47.408Z,7.08
2024-03-23T15:21:03.146Z,6.84
2024-03-23T15:26:33.961Z,6.57
2024-03-23T15:32:57.999Z,6.33
2024-03-23T15:39:02.229Z,6.14
2024-03-23T15:45:08.028Z,6.10
2024-03-23T15:51:33.403Z,5.96
2024-03-23T15:57:59.516Z,5.95
2024-03-23T16:03:36.226Z,5.96
2024-03-23T16:09:51.427Z,5.99
2024-03-23T16:15:57.073Z,5.99
2024-03-23T16:22:15.644Z,6.00
2024-03-23T16:28:28.398Z,5.95
2024-03-23T16:34:44.060Z,5.91
2024-03-23T16:40:51.024Z,5.85
2024-03-23T16:46:47.069Z,5.78
2024-03-23T16:53:00.463Z,5.71
2024-03-23T16:59:03.189Z,5.68
2024-03-23T17:05:16.412Z,5.63
2024-03-23T17:11:22.289Z,5.60
2024-03-23T17:17:45.173Z,5.54
2024-03-23T17:23:52.748Z,5.47
2024-03-23T17:30:17.861Z,5.41
2024-03-23T17:36:24.135Z,5.36
2024-03-23T17:42:44.662Z,5.34
2024-03-23T17:49:09.658Z,5.28
2024-03-23T17:55:26.268Z,5.17
2024-03-23T18:01:00.818Z,5.09
2024-03-23T18:06:05.044Z,5.05
2024-03-23T18:12:24.248Z,4.98
2024-03-23T18:17:31.453Z,4.93
2024-03-23T18:23:27.429Z,4.86
2024-03-23T18:28:52.819Z,4.80
2024-03-23T18:33:58.456Z,4.77
2024-03-23T18:39:38.561Z,4.73
2024-03-23T18:45:29.003Z,4.66
2024-03-23T18:51:12.042Z,4.59
2024-03-23T18:57:04.659Z,4.54
2024-03-23T19:03:21.443Z,4.48
2024-03-23T19:09:04.476Z,4.45
2024-03-23T19:15:22.318Z,4.40
2024-03-23T19:21:20.457Z,4.42
2024-03-23T19:27:40.931Z,4.39
2024-03-23T19:34:06.771Z,4.32
2024-03-23T19:40:31.396Z,4.25
2024-03-23T19:46:25.513Z,4.19
2024-03-23T19:52:52.357Z,4.09
2024-03-23T19:59:08.227Z,4.04
2024-03-23T20:05:33.718Z,3.99
2024-03-23T20:18:37.533Z,3.88
2024-03-23T20:24:47.625Z,3.80
2024-03-23T20:31:04.420Z,3.74
2024-03-23T20:37:33.366Z,3.70
2024-03-23T20:43:28.785Z,3.68
2024-03-23T20:49:51.733Z,3.69
2024-03-23T20:56:18.120Z,3.65
2024-03-23T21:02:32.159Z,3.60
2024-03-23T21:09:03.208Z,3.52
2024-03-23T21:15:28.854Z,3.42
2024-03-23T21:21:52.868Z,3.34
2024-03-23T21:28:22.545Z,3.24
2024-03-23T21:34:11.411Z,3.11
2024-03-23T21:40:17.010Z,3.08
2024-03-23T21:46:34.710Z,3.09
2024-03-23T21:52:34.506Z,3.13
2024-03-23T21:57:59.900Z,3.20
2024-03-23T22:04:05.514Z,3.30
2024-03-23T22:10:21.119Z,3.37
2024-03-23T22:16:27.624Z,3.44
2024-03-23T22:22:34.674Z,3.45
2024-03-23T22:28:12.527Z,3.43
2024-03-23T22:33:40.435Z,3.37
2024-03-23T22:39:08.084Z,3.31
2024-03-23T22:44:30.789Z,3.28
2024-03-23T22:50:22.326Z,3.17
2024-03-23T22:55:53.170Z,3.07
2024-03-23T23:01:36.635Z,3.01
2024-03-23T23:07:06.820Z,2.94
2024-03-23T23:12:43.925Z,2.87
2024-03-23T23:17:51.778Z,2.82
2024-03-23T23:23:23.905Z,2.79
2024-03-23T23:29:04.007Z,2.80
2024-03-23T23:34:41.288Z,2.75
2024-03-23T23:40:35.663Z,2.71
2024-03-23T23:46:02.828Z,2.66
2024-03-23T23:52:18.127Z,2.56
2024-03-23T23:58:22.328Z,2.45
